createdAt,value
2023-03-08T00:02:02.116Z,97654.13
2023-03-08T00:04:48.678Z,97661.84
2023-03-08T00:07:35.144Z,97676.34
2023-03-08T00:10:22.343Z,97678.06
2023-03-08T00:13:08.997Z,97688.31
2023-03-08T00:16:00.807Z,97703.69
2023-03-08T00:18:48.245Z,97687.44
2023-03-08T00:21:34.760Z,97701.97
2023-03-08T00:24:21.049Z,97657.56
2023-03-08T00:27:07.371Z,97653.31
2023-03-08T00:29:53.596Z,97695.16
2023-03-08T00:32:40.285Z,97687.47
2023-03-08T00:35:26.770Z,97714.78
2023-03-08T00:38:13.274Z,97647.31
2023-03-08T00:41:00.585Z,97715.63
2023-03-08T00:43:47.184Z,97704.53
2023-03-08T00:46:33.356Z,97678.06
2023-03-08T00:49:19.530Z,97691.72
2023-03-08T00:52:06.376Z,97668.66
2023-03-08T00:54:53.154Z,97672.06
2023-03-08T00:57:44.153Z,97667.78
2023-03-08T01:00:31.635Z,97669.50
2023-03-08T01:03:18.816Z,97671.19
2023-03-08T01:06:11.289Z,97666.00
2023-03-08T01:08:57.581Z,97680.44
2023-03-08T01:11:44.285Z,97636.00
2023-03-08T01:14:33.031Z,97635.97
2023-03-08T01:17:19.509Z,97662.38
2023-03-08T01:20:07.291Z,97601.75
2023-03-08T01:22:53.876Z,97638.44
2023-03-08T01:25:40.551Z,97658.94
2023-03-08T01:28:27.375Z,97658.97
2023-03-08T01:31:23.400Z,97657.25
2023-03-08T01:34:11.208Z,97643.47
2023-03-08T01:36:57.788Z,97612.66
2023-03-08T01:39:44.116Z,97629.63
2023-03-08T01:42:30.535Z,97601.53
2023-03-08T01:45:54.686Z,97636.50
2023-03-08T01:48:52.910Z,97623.53
2023-03-08T01:51:42.792Z,97637.22
2023-03-08T01:54:33.411Z,97610.63
2023-03-08T01:57:39.075Z,97601.88
2023-03-08T02:00:27.315Z,97624.84
2023-03-08T02:03:14.244Z,97618.84
2023-03-08T02:06:03.044Z,97614.59
2023-03-08T02:08:50.677Z,97618.88
2023-03-08T02:11:40.630Z,97625.81
2023-03-08T02:14:27.838Z,97579.53
2023-03-08T02:17:14.492Z,97591.69
2023-03-08T02:20:14.852Z,97612.91
2023-03-08T02:23:30.416Z,97601.59
2023-03-08T02:26:17.604Z,97574.13
2023-03-08T02:29:03.857Z,97572.53
2023-03-08T02:31:50.102Z,97587.06
2023-03-08T02:34:36.832Z,97564.41
2023-03-08T02:37:23.808Z,97549.91
2023-03-08T02:40:11.680Z,97554.47
2023-03-08T02:42:58.270Z,97545.13
2023-03-08T02:45:44.939Z,97575.97
2023-03-08T02:48:31.400Z,97502.63
2023-03-08T02:51:18.259Z,97471.09
2023-03-08T02:54:04.807Z,97546.28
2023-03-08T02:56:51.400Z,97542.88
2023-03-08T02:59:38.424Z,97567.72
2023-03-08T03:02:25.176Z,97543.84
2023-03-08T03:05:11.960Z,97523.41
2023-03-08T03:08:01.311Z,97534.50
2023-03-08T03:10:49.232Z,97501.28
2023-03-08T03:13:35.513Z,97495.28
2023-03-08T03:16:22.299Z,97494.47
2023-03-08T03:19:09.199Z,97505.63
2023-03-08T03:21:55.755Z,97498.78
2023-03-08T03:24:42.534Z,97467.22
2023-03-08T03:27:29.211Z,97497.91
2023-03-08T03:30:16.568Z,97477.47
2023-03-08T03:33:03.933Z,97445.00
2023-03-08T03:35:51.859Z,97464.63
2023-03-08T03:38:38.776Z,97469.75
2023-03-08T03:41:25.584Z,97464.56
2023-03-08T03:44:21.041Z,97450.03
2023-03-08T03:47:09.399Z,97479.84
2023-03-08T03:49:55.958Z,97448.22
2023-03-08T03:52:43.376Z,97454.97
2023-03-08T03:55:29.683Z,97479.66
2023-03-08T03:58:17.156Z,97469.41
2023-03-08T04:01:12.350Z,97477.22
2023-03-08T04:03:58.897Z,97459.31
2023-03-08T04:06:46.738Z,97443.22
2023-03-08T04:09:35.938Z,97427.06
2023-03-08T04:12:27.789Z,97413.50
2023-03-08T04:15:15.554Z,97432.28
2023-03-08T04:18:02.075Z,97405.00
2023-03-08T04:20:52.398Z,97422.03
2023-03-08T04:23:39.890Z,97442.47
2023-03-08T04:26:29.426Z,97462.13
2023-03-08T04:29:15.851Z,97410.06
2023-03-08T04:32:02.738Z,97437.34
2023-03-08T04:34:59.344Z,97434.78
2023-03-08T04:37:49.714Z,97440.75
2023-03-08T04:40:59.086Z,97426.25
2023-03-08T04:43:54.310Z,97430.53
2023-03-08T04:46:47.234Z,97420.31
2023-03-08T04:49:40.317Z,97378.50
2023-03-08T04:52:27.509Z,97392.19
2023-03-08T04:55:14.194Z,97362.34
2023-03-08T04:58:00.898Z,97389.66
2023-03-08T05:00:50.051Z,97352.97
2023-03-08T05:03:36.721Z,97400.72
2023-03-08T05:06:25.368Z,97392.19
2023-03-08T05:09:12.828Z,97365.75
2023-03-08T05:12:01.364Z,97366.59
2023-03-08T05:14:58.135Z,97372.53
2023-03-08T05:17:46.368Z,97346.94
2023-03-08T05:20:32.755Z,97318.84
2023-03-08T05:23:19.631Z,97352.94
2023-03-08T05:26:07.326Z,97398.16
2023-03-08T05:28:54.948Z,97371.72
2023-03-08T05:31:46.817Z,97360.63
2023-03-08T05:34:34.700Z,97385.34
2023-03-08T05:37:27.338Z,97348.72
2023-03-08T05:40:14.280Z,97359.78
2023-03-08T05:43:03.541Z,97357.25
2023-03-08T05:45:57.743Z,97378.56
2023-03-08T05:48:45.871Z,97379.41
2023-03-08T05:51:34.777Z,97381.97
2023-03-08T05:54:22.648Z,97381.97
2023-03-08T05:57:11.537Z,97353.81
2023-03-08T05:59:58.767Z,97374.31
2023-03-08T06:02:46.043Z,97365.78
2023-03-08T06:05:34.239Z,97327.44
2023-03-08T06:08:20.999Z,97328.31
2023-03-08T06:11:08.713Z,97348.78
2023-03-08T06:13:55.662Z,97322.38
2023-03-08T06:16:48.622Z,97340.25
2023-03-08T06:19:36.530Z,97285.75
2023-03-08T06:22:23.497Z,97337.69
2023-03-08T06:25:10.982Z,97341.13
2023-03-08T06:27:58.605Z,97295.97
2023-03-08T06:30:57.952Z,97320.63
2023-03-08T06:33:45.041Z,97316.41
2023-03-08T06:36:35.923Z,97268.69
2023-03-08T06:39:22.687Z,97261.88
2023-03-08T06:42:09.749Z,97278.06
2023-03-08T06:44:56.259Z,97272.09
2023-03-08T06:47:42.654Z,97272.97
2023-03-08T06:50:30.174Z,97293.38
2023-03-08T06:53:16.949Z,97268.66
2023-03-08T06:56:16.774Z,97217.56
2023-03-08T06:59:03.575Z,97267.72
2023-03-08T07:01:50.198Z,97271.03
2023-03-08T07:04:36.411Z,97267.59
2023-03-08T07:07:23.327Z,97253.03
2023-03-08T07:10:11.289Z,97259.84
2023-03-08T07:12:58.359Z,97254.69
2023-03-08T07:15:44.619Z,97263.25
2023-03-08T07:18:30.942Z,97253.03
2023-03-08T07:21:17.987Z,97248.69
2023-03-08T07:24:04.683Z,97229.97
2023-03-08T07:26:51.067Z,97233.28
2023-03-08T07:29:37.529Z,97221.34
2023-03-08T07:32:29.434Z,97214.53
2023-03-08T07:35:16.220Z,97217.94
2023-03-08T07:38:02.881Z,97242.53
2023-03-08T07:40:56.893Z,97195.84
2023-03-08T07:43:43.911Z,97194.13
2023-03-08T07:46:40.735Z,97198.19
2023-03-08T07:49:27.033Z,97208.41
2023-03-08T07:52:13.881Z,97229.72
2023-03-08T07:55:02.231Z,97159.94
2023-03-08T07:57:48.664Z,97214.28
2023-03-08T08:00:35.234Z,97198.13
2023-03-08T08:03:21.742Z,97192.13
2023-03-08T08:06:09.234Z,97156.31
2023-03-08T08:08:56.421Z,97178.47
2023-03-08T08:11:43.373Z,97136.78
2023-03-08T08:14:29.720Z,97119.78
2023-03-08T08:17:17.798Z,97106.19
2023-03-08T08:20:06.758Z,97147.72
2023-03-08T08:22:54.358Z,97150.28
2023-03-08T08:25:41.058Z,97092.34
2023-03-08T08:28:29.464Z,97044.78
2023-03-08T08:31:20.655Z,97103.31
2023-03-08T08:34:07.376Z,97112.50
2023-03-08T08:36:53.704Z,97073.94
2023-03-08T08:39:40.712Z,97081.50
2023-03-08T08:42:27.423Z,97061.03
2023-03-08T08:45:13.721Z,97083.00
2023-03-08T08:48:00.035Z,97109.38
2023-03-08T08:50:46.371Z,97102.50
2023-03-08T08:53:33.846Z,97047.22
2023-03-08T08:56:27.089Z,97062.34
2023-03-08T08:59:16.605Z,97075.31
2023-03-08T09:02:04.235Z,97080.13
2023-03-08T09:04:50.670Z,97038.41
2023-03-08T09:07:38.270Z,97007.72
2023-03-08T09:10:27.602Z,97076.38
2023-03-08T09:13:14.166Z,97044.75
2023-03-08T09:16:01.008Z,97047.25
2023-03-08T09:18:47.687Z,97036.16
2023-03-08T09:21:35.294Z,97042.09
2023-03-08T09:24:22.773Z,97020.09
2023-03-08T09:27:09.152Z,97037.44
2023-03-08T09:29:55.481Z,97042.69
2023-03-08T09:32:42.272Z,97035.53
2023-03-08T09:35:30.640Z,97011.78
2023-03-08T09:38:17.247Z,96996.34
2023-03-08T09:41:28.628Z,97016.53
2023-03-08T09:44:27.378Z,97005.41
2023-03-08T09:47:30.628Z,96948.34
2023-03-08T09:50:28.404Z,96999.25
2023-03-08T09:53:22.693Z,96989.75
2023-03-08T09:56:20.092Z,96991.19
2023-03-08T09:59:11.585Z,96937.25
2023-03-08T10:02:11.197Z,96972.38
2023-03-08T10:05:13.432Z,96975.19
2023-03-08T10:08:22.164Z,96964.59
2023-03-08T10:11:25.208Z,96930.38
2023-03-08T10:14:24.728Z,96915.97
2023-03-08T10:17:22.473Z,96940.13
2023-03-08T10:20:23.922Z,96947.59
2023-03-08T10:23:15.818Z,96941.53
2023-03-08T10:26:06.974Z,96904.19
2023-03-08T10:28:53.766Z,96929.25
2023-03-08T10:31:43.747Z,96906.78
2023-03-08T10:34:32.335Z,96910.75
2023-03-08T10:37:22.009Z,96885.91
2023-03-08T10:40:16.235Z,96914.13
2023-03-08T10:43:06.262Z,96882.66
2023-03-08T10:46:04.667Z,96902.69
2023-03-08T10:48:52.355Z,96886.16
2023-03-08T10:51:39.220Z,96849.44
2023-03-08T10:54:27.735Z,96879.97
2023-03-08T10:57:20.596Z,96851.00
2023-03-08T11:00:16.295Z,96887.97
2023-03-08T11:03:13.767Z,96883.56
2023-03-08T11:06:03.732Z,96882.19
2023-03-08T11:08:56.233Z,96858.69
2023-03-08T11:11:43.406Z,96881.44
2023-03-08T11:14:30.830Z,96846.28
2023-03-08T11:17:35.838Z,96885.25
2023-03-08T11:20:28.697Z,96889.00
2023-03-08T11:23:18.261Z,96883.00
2023-03-08T11:26:34.732Z,96866.50
2023-03-08T11:29:39.775Z,96854.66
2023-03-08T11:32:30.713Z,96887.25
2023-03-08T11:35:25.360Z,96881.06
2023-03-08T11:38:22.645Z,96865.78
2023-03-08T11:41:29.631Z,96853.81
2023-03-08T11:44:37.340Z,96849.50
2023-03-08T11:47:51.448Z,96833.00
2023-03-08T11:51:02.725Z,96852.19
2023-03-08T11:54:34.401Z,96866.66
2023-03-08T11:57:22.368Z,96851.97
2023-03-08T12:00:33.508Z,96811.69
2023-03-08T12:03:24.382Z,96850.16
2023-03-08T12:06:28.619Z,96834.03
2023-03-08T12:09:40.264Z,96824.81
2023-03-08T12:12:34.040Z,96817.78
2023-03-08T12:15:26.055Z,96835.34
2023-03-08T12:18:22.956Z,96849.78
2023-03-08T12:21:26.468Z,96846.88
2023-03-08T12:24:40.642Z,96849.84
2023-03-08T12:27:41.259Z,96857.25
2023-03-08T12:31:26.635Z,96846.09
2023-03-08T12:34:26.843Z,96827.56
2023-03-08T12:37:29.714Z,96854.06
2023-03-08T12:40:50.268Z,96864.03
2023-03-08T12:43:38.102Z,96842.44
2023-03-08T12:46:24.880Z,96844.44
2023-03-08T12:49:45.713Z,96854.78
2023-03-08T12:52:35.300Z,96846.34
2023-03-08T12:55:31.796Z,96833.03
2023-03-08T12:58:18.899Z,96810.03
2023-03-08T13:01:23.077Z,96853.06
2023-03-08T13:04:39.784Z,96842.66
2023-03-08T13:07:36.578Z,96805.41
2023-03-08T13:10:29.995Z,96848.94
2023-03-08T13:13:43.983Z,96819.00
2023-03-08T13:16:37.720Z,96842.69
2023-03-08T13:19:28.897Z,96842.56
2023-03-08T13:22:31.887Z,96793.59
2023-03-08T13:25:40.181Z,96836.75
2023-03-08T13:28:46.245Z,96826.94
2023-03-08T13:31:34.082Z,96803.19
2023-03-08T13:34:30.005Z,96836.50
2023-03-08T13:37:25.328Z,96806.19
2023-03-08T13:40:18.029Z,96848.91
2023-03-08T13:43:08.474Z,96808.00
2023-03-08T13:45:58.591Z,96842.97
2023-03-08T13:48:45.756Z,96816.94
2023-03-08T13:51:32.572Z,96825.78
2023-03-08T13:54:29.823Z,96848.03
2023-03-08T13:57:29.436Z,96848.84
2023-03-08T14:00:25.152Z,96834.44
2023-03-08T14:03:20.432Z,96831.50
2023-03-08T14:06:31.076Z,96825.88
2023-03-08T14:09:18.458Z,96799.91
2023-03-08T14:12:07.280Z,96791.41
2023-03-08T14:15:00.050Z,96825.94
2023-03-08T14:17:46.337Z,96834.69
2023-03-08T14:20:32.647Z,96818.88
2023-03-08T14:23:24.242Z,96831.38
2023-03-08T14:26:34.799Z,96830.41
2023-03-08T14:29:25.582Z,96852.56
2023-03-08T14:32:12.401Z,96849.75
2023-03-08T14:35:21.901Z,96850.56
2023-03-08T14:38:30.930Z,96852.97
2023-03-08T14:41:17.911Z,96831.59
2023-03-08T14:44:05.128Z,96844.38
2023-03-08T14:46:59.912Z,96813.03
2023-03-08T14:50:00.736Z,96846.59
2023-03-08T14:52:51.478Z,96845.03
2023-03-08T14:55:40.124Z,96831.84
2023-03-08T14:58:32.538Z,96839.34
2023-03-08T15:01:28.895Z,96826.13
2023-03-08T15:04:25.876Z,96798.22
2023-03-08T15:07:22.309Z,96818.16
2023-03-08T15:10:18.159Z,96803.19
2023-03-08T15:13:13.519Z,96807.06
2023-03-08T15:15:59.974Z,96789.13
2023-03-08T15:18:46.431Z,96765.19
2023-03-08T15:21:33.763Z,96780.38
2023-03-08T15:24:19.856Z,96769.88
2023-03-08T15:27:06.094Z,96774.59
2023-03-08T15:29:52.390Z,96787.84
2023-03-08T15:32:38.974Z,96791.16
2023-03-08T15:35:25.597Z,96790.47
2023-03-08T15:38:14.023Z,96794.31
2023-03-08T15:41:00.947Z,96788.16
2023-03-08T15:43:48.556Z,96790.38
2023-03-08T15:46:34.811Z,96771.25
2023-03-08T15:49:21.132Z,96780.44
2023-03-08T15:52:08.774Z,96782.94
2023-03-08T15:54:55.397Z,96768.06
2023-03-08T15:57:42.098Z,96785.34
2023-03-08T16:00:29.146Z,96779.44
2023-03-08T16:03:15.419Z,96787.50
2023-03-08T16:06:03.135Z,96785.47
2023-03-08T16:08:50.362Z,96759.50
2023-03-08T16:11:37.123Z,96769.59
2023-03-08T16:14:23.523Z,96776.59
2023-03-08T16:17:10.633Z,96756.00
2023-03-08T16:19:57.111Z,96747.22
2023-03-08T16:22:45.457Z,96754.50
2023-03-08T16:25:31.564Z,96765.94
2023-03-08T16:28:18.713Z,96763.56
2023-03-08T16:31:05.481Z,96776.91
2023-03-08T16:33:51.857Z,96768.50
2023-03-08T16:36:38.153Z,96757.91
2023-03-08T16:39:25.577Z,96780.06
2023-03-08T16:42:13.601Z,96741.38
2023-03-08T16:45:00.940Z,96730.47
2023-03-08T16:47:48.354Z,96719.13
2023-03-08T16:50:34.864Z,96748.19
2023-03-08T16:53:22.082Z,96746.91
2023-03-08T16:56:10.672Z,96746.63
2023-03-08T16:58:59.206Z,96736.03
2023-03-08T17:01:47.292Z,96728.88
2023-03-08T17:04:33.463Z,96738.69
2023-03-08T17:07:21.618Z,96724.44
2023-03-08T17:10:08.704Z,96738.81
2023-03-08T17:12:55.202Z,96742.53
2023-03-08T17:15:43.598Z,96752.19
2023-03-08T17:18:29.874Z,96766.00
2023-03-08T17:21:16.256Z,96744.66
2023-03-08T17:24:05.544Z,96750.97
2023-03-08T17:26:53.041Z,96733.47
2023-03-08T17:29:39.677Z,96729.13
2023-03-08T17:32:26.201Z,96739.38
2023-03-08T17:35:13.345Z,96753.31
2023-03-08T17:37:59.948Z,96728.78
2023-03-08T17:40:46.311Z,96741.09
2023-03-08T17:43:32.790Z,96724.91
2023-03-08T17:46:23.394Z,96750.97
2023-03-08T17:49:12.025Z,96739.91
2023-03-08T17:51:58.271Z,96727.91
2023-03-08T17:54:44.865Z,96712.22
2023-03-08T17:57:31.566Z,96727.59
2023-03-08T18:00:19.460Z,96714.75
2023-03-08T18:03:06.187Z,96742.41
2023-03-08T18:05:53.030Z,96744.25
2023-03-08T18:08:39.511Z,96719.94
2023-03-08T18:11:26.504Z,96733.94
2023-03-08T18:14:14.608Z,96748.69
2023-03-08T18:17:01.465Z,96738.69
2023-03-08T18:19:49.151Z,96729.38
2023-03-08T18:22:37.166Z,96742.72
2023-03-08T18:25:23.670Z,96701.88
2023-03-08T18:28:09.987Z,96709.25
2023-03-08T18:30:56.588Z,96702.72
2023-03-08T18:33:44.042Z,96740.56
2023-03-08T18:36:30.716Z,96738.75
2023-03-08T18:39:17.587Z,96718.53
2023-03-08T18:42:04.474Z,96737.19
2023-03-08T18:44:51.103Z,96706.41
2023-03-08T18:47:37.977Z,96729.19
2023-03-08T18:50:25.375Z,96718.88
2023-03-08T18:53:16.301Z,96712.16
2023-03-08T18:56:04.106Z,96743.50
2023-03-08T18:58:50.717Z,96713.72
2023-03-08T19:01:37.147Z,96691.38
2023-03-08T19:04:23.657Z,96709.53
2023-03-08T19:07:10.721Z,96720.28
2023-03-08T19:09:57.071Z,96693.97
2023-03-08T19:12:43.931Z,96714.03
2023-03-08T19:15:30.485Z,96728.22
2023-03-08T19:18:17.178Z,96716.31
2023-03-08T19:21:03.606Z,96706.47
2023-03-08T19:23:50.062Z,96745.44
2023-03-08T19:26:37.903Z,96711.97
2023-03-08T19:29:30.160Z,96741.41
2023-03-08T19:32:17.619Z,96708.00
2023-03-08T19:35:05.514Z,96684.41
2023-03-08T19:37:52.092Z,96741.09
2023-03-08T19:40:39.638Z,96715.78
2023-03-08T19:43:27.714Z,96734.47
2023-03-08T19:46:17.712Z,96730.81
2023-03-08T19:49:06.472Z,96715.03
2023-03-08T19:51:55.281Z,96700.22
2023-03-08T19:54:43.807Z,96754.97
2023-03-08T19:57:30.352Z,96737.69
2023-03-08T20:00:17.952Z,96729.38
2023-03-08T20:03:04.737Z,96742.72
2023-03-08T20:05:51.165Z,96759.19
2023-03-08T20:08:38.369Z,96778.28
2023-03-08T20:11:25.090Z,96770.69
2023-03-08T20:14:11.888Z,96790.59
2023-03-08T20:16:59.305Z,96785.63
2023-03-08T20:19:45.800Z,96799.06
2023-03-08T20:22:32.683Z,96802.53
2023-03-08T20:25:19.110Z,96757.66
2023-03-08T20:28:05.871Z,96782.94
2023-03-08T20:30:52.504Z,96795.34
2023-03-08T20:33:39.609Z,96786.38
2023-03-08T20:36:26.631Z,96791.44
2023-03-08T20:39:13.395Z,96793.28
2023-03-08T20:42:00.237Z,96790.53
2023-03-08T20:44:47.498Z,96812.03
2023-03-08T20:47:34.085Z,96806.38
2023-03-08T20:50:26.291Z,96827.72
2023-03-08T20:53:13.166Z,96769.66
2023-03-08T20:56:04.957Z,96797.06
2023-03-08T20:58:55.110Z,96788.78
2023-03-08T21:01:43.389Z,96763.69
2023-03-08T21:04:31.072Z,96786.91
2023-03-08T21:07:17.268Z,96778.41
2023-03-08T21:10:04.654Z,96775.84
2023-03-08T21:12:50.954Z,96787.72
2023-03-08T21:15:37.450Z,96813.44
2023-03-08T21:18:24.033Z,96789.34
2023-03-08T21:21:17.593Z,96792.78
2023-03-08T21:24:07.290Z,96821.31
2023-03-08T21:26:53.869Z,96801.75
2023-03-08T21:29:41.062Z,96807.25
2023-03-08T21:32:28.180Z,96768.38
2023-03-08T21:35:14.826Z,96810.25
2023-03-08T21:40:56.290Z,96831.66
2023-03-08T21:43:42.990Z,96836.53
2023-03-08T21:46:29.375Z,96823.94
2023-03-08T21:49:18.777Z,96829.19
2023-03-08T21:52:07.516Z,96815.81
2023-03-08T21:54:54.666Z,96803.91
2023-03-08T21:57:43.125Z,96800.00
2023-03-08T22:00:29.439Z,96800.84
2023-03-08T22:03:16.120Z,96802.03
2023-03-08T22:06:02.853Z,96793.56
2023-03-08T22:08:50.379Z,96780.19
2023-03-08T22:11:36.829Z,96773.22
2023-03-08T22:14:23.371Z,96760.97
2023-03-08T22:17:09.632Z,96768.38
2023-03-08T22:19:56.854Z,96764.31
2023-03-08T22:22:44.287Z,96775.88
2023-03-08T22:25:31.232Z,96792.75
2023-03-08T22:28:17.968Z,96785.75
2023-03-08T22:31:15.896Z,96775.56
2023-03-08T22:34:02.329Z,96739.81
2023-03-08T22:36:49.076Z,96732.75
2023-03-08T22:39:37.621Z,96725.22
2023-03-08T22:42:24.263Z,96714.97
2023-03-08T22:45:11.168Z,96738.22
2023-03-08T22:48:00.519Z,96721.59
2023-03-08T22:50:46.764Z,96763.47
2023-03-08T22:53:32.791Z,96744.75
2023-03-08T22:56:30.142Z,96741.16
2023-03-08T22:59:16.736Z,96733.81
2023-03-08T23:02:04.613Z,96707.25
2023-03-08T23:04:50.905Z,96704.06
2023-03-08T23:07:37.178Z,96685.72
2023-03-08T23:10:23.760Z,96690.16
2023-03-08T23:13:14.356Z,96702.59
2023-03-08T23:16:03.078Z,96701.72
2023-03-08T23:18:51.315Z,96689.09
2023-03-08T23:21:38.260Z,96666.22
2023-03-08T23:24:25.463Z,96659.31
2023-03-08T23:27:12.095Z,96674.25
2023-03-08T23:29:58.597Z,96666.47
2023-03-08T23:32:45.292Z,96652.81
2023-03-08T23:35:31.750Z,96627.03
2023-03-08T23:38:18.374Z,96634.66
2023-03-08T23:41:06.640Z,96630.88
2023-03-08T23:43:58.013Z,96612.94
2023-03-08T23:46:46.139Z,96623.84
2023-03-08T23:49:32.464Z,96620.66
2023-03-08T23:52:18.962Z,96624.03
2023-03-08T23:55:05.900Z,96622.38
2023-03-08T23:57:52.733Z,96627.44
